Time;durP1;ratioP1;P1;durP2;ratioP2;P2;SDS_P1;SDS_P2;PMS_P1;PMS_P2;Temp;Humidity;BMP_temperature;BMP_pressure;BME280_temperature;BME280_humidity;BME280_pressure;Samples;Min_cycle;Max_cycle;Signal;HPM_P1;HPM_P2
2022/02/21 00:00:11;;;;;;;;;;;8.40;99.90;;;;;;5071929;28;19908;-73
2022/02/21 00:02:38;;;;;;;;;;;8.40;99.90;;;;;;5072033;28;19954;-73
2022/02/21 00:05:05;;;;;;;;;;;8.60;99.90;;;;;;5070654;28;19908;-73
2022/02/21 00:07:31;;;;;;;;;;;8.40;99.90;;;;;;5072232;28;19999;-73
2022/02/21 00:09:56;;;;;;;;;;;8.40;99.90;;;;;;5072117;28;19963;-73
2022/02/21 00:12:22;;;;;;;;;;;8.60;99.90;;;;;;5072006;28;19912;-73
2022/02/21 00:14:47;;;;;;;;;;;8.60;99.90;;;;;;5071175;28;19969;-73
2022/02/21 00:17:13;;;;;;;;;;;8.60;99.90;;;;;;5071689;28;20385;-73
2022/02/21 00:19:39;;;;;;;;;;;8.60;99.90;;;;;;5072024;28;19961;-73
2022/02/21 00:22:05;;;;;;;;;;;8.70;99.90;;;;;;5071870;28;19916;-74
2022/02/21 00:24:30;;;;;;;;;;;8.70;99.90;;;;;;5072134;28;20353;-73
2022/02/21 00:26:56;;;;;;;;;;;8.60;99.90;;;;;;5071589;28;20387;-74
2022/02/21 00:29:21;;;;;;;;;;;8.60;99.90;;;;;;5070936;28;20078;-73
2022/02/21 00:31:47;;;;;;;;;;;8.60;99.90;;;;;;5071487;28;19919;-73
2022/02/21 00:34:13;;;;;;;;;;;8.70;99.90;;;;;;5071459;28;19909;-73
2022/02/21 00:36:39;;;;;;;;;;;8.60;99.90;;;;;;5071601;28;20023;-73
2022/02/21 00:39:04;;;;;;;;;;;8.50;99.90;;;;;;5071541;28;20385;-74
2022/02/21 00:41:30;;;;;;;;;;;8.60;99.90;;;;;;5071333;28;19915;-74
2022/02/21 00:43:55;;;;;;;;;;;8.60;99.90;;;;;;5070117;28;19962;-73
2022/02/21 00:46:21;;;;;;;;;;;8.60;99.90;;;;;;5071578;28;19912;-73
2022/02/21 00:48:46;;;;;;;;;;;8.60;99.90;;;;;;5071406;28;19912;-73
2022/02/21 00:51:12;;;;;;;;;;;8.60;99.90;;;;;;5071446;28;20281;-73
2022/02/21 00:53:37;;;;;;;;;;;8.50;99.90;;;;;;5071083;28;19965;-73
2022/02/21 00:56:03;;;;;;;;;;;8.40;99.90;;;;;;5071210;28;19908;-73
2022/02/21 00:58:28;;;;;;;;;;;8.30;99.90;;;;;;5062540;28;19916;-73
2022/02/21 01:00:54;;;;;;;;;;;8.20;99.90;;;;;;5071004;28;20377;-73
2022/02/21 01:03:19;;;;;;;;;;;7.80;99.90;;;;;;5070540;28;19909;-74
2022/02/21 01:05:45;;;;;;;;;;;7.50;99.90;;;;;;5070352;28;19908;-73
2022/02/21 01:08:10;;;;;;;;;;;7.40;99.90;;;;;;5070995;28;20232;-73
2022/02/21 01:10:37;;;;;;;;;;;7.40;99.90;;;;;;5069778;28;19909;-73
2022/02/21 01:13:03;;;;;;;;;;;7.40;99.90;;;;;;5070826;28;20359;-74
2022/02/21 01:15:29;;;;;;;;;;;7.40;99.90;;;;;;5070897;28;20019;-73
2022/02/21 01:17:54;;;;;;;;;;;7.50;99.90;;;;;;5069841;28;19913;-73
2022/02/21 01:20:20;;;;;;;;;;;7.50;99.90;;;;;;5071174;28;20306;-73
2022/02/21 01:22:45;;;;;;;;;;;7.50;99.90;;;;;;5070915;28;19908;-74
2022/02/21 01:25:11;;;;;;;;;;;7.50;99.90;;;;;;5070859;28;19940;-73
2022/02/21 01:27:36;;;;;;;;;;;7.50;99.90;;;;;;5071288;28;19919;-73
2022/02/21 01:30:03;;;;;;;;;;;7.60;99.90;;;;;;5074688;28;19908;-73
2022/02/21 01:32:29;;;;;;;;;;;7.50;99.90;;;;;;5074846;28;19958;-73
2022/02/21 01:34:54;;;;;;;;;;;7.60;99.90;;;;;;5075115;28;19908;-73
2022/02/21 01:37:20;;;;;;;;;;;7.60;99.90;;;;;;5075091;28;20384;-73
2022/02/21 01:39:45;;;;;;;;;;;7.50;99.90;;;;;;5074970;28;20369;-73
2022/02/21 01:42:11;;;;;;;;;;;7.60;99.90;;;;;;5074884;28;20190;-72
2022/02/21 01:44:43;;;;;;;;;;;7.50;99.90;;;;;;5074335;28;19999;-73
2022/02/21 01:47:10;;;;;;;;;;;7.50;99.90;;;;;;5075745;28;19917;-73
2022/02/21 01:49:36;;;;;;;;;;;7.50;99.90;;;;;;5074927;28;19919;-73
2022/02/21 01:52:03;;;;;;;;;;;7.60;99.90;;;;;;5074632;28;19916;-73
2022/02/21 01:54:29;;;;;;;;;;;7.50;99.90;;;;;;5074343;28;19912;-73
2022/02/21 01:56:54;;;;;;;;;;;7.60;99.90;;;;;;5074623;28;20035;-74
2022/02/21 01:59:20;;;;;;;;;;;7.50;99.90;;;;;;5073199;28;19916;-73
2022/02/21 02:01:46;;;;;;;;;;;7.50;99.90;;;;;;5074264;28;20288;-73
2022/02/21 02:04:12;;;;;;;;;;;7.50;99.90;;;;;;5074261;28;19913;-73
2022/02/21 02:06:38;;;;;;;;;;;7.50;99.90;;;;;;5074494;28;19989;-73
2022/02/21 02:09:03;;;;;;;;;;;7.70;99.90;;;;;;5074744;28;19909;-73
2022/02/21 02:11:29;;;;;;;;;;;7.60;99.90;;;;;;5074192;28;19912;-73
2022/02/21 02:13:54;;;;;;;;;;;7.60;99.90;;;;;;5074172;28;20426;-74
2022/02/21 02:16:20;;;;;;;;;;;7.70;99.90;;;;;;5074289;28;19961;-73
2022/02/21 02:18:47;;;;;;;;;;;7.70;99.90;;;;;;5074247;28;19909;-73
2022/02/21 02:21:19;;;;;;;;;;;7.70;99.90;;;;;;5074093;28;20007;-73
2022/02/21 02:23:45;;;;;;;;;;;7.60;99.90;;;;;;5073728;28;19928;-75
2022/02/21 02:26:10;;;;;;;;;;;7.60;99.90;;;;;;5074171;28;20007;-73
2022/02/21 02:28:36;;;;;;;;;;;7.60;99.90;;;;;;5071092;28;19912;-73
2022/02/21 02:31:01;;;;;;;;;;;7.70;99.90;;;;;;5073594;28;19912;-73
2022/02/21 02:33:27;;;;;;;;;;;7.70;99.90;;;;;;5072302;28;19919;-74
2022/02/21 02:35:53;;;;;;;;;;;7.70;99.90;;;;;;5074072;28;19916;-73
2022/02/21 02:38:18;;;;;;;;;;;7.80;99.90;;;;;;5072702;28;19908;-73
2022/02/21 02:40:43;;;;;;;;;;;7.80;99.90;;;;;;5073881;28;19999;-74
2022/02/21 02:43:12;;;;;;;;;;;7.80;99.90;;;;;;5073418;28;19915;-73
2022/02/21 02:45:41;;;;;;;;;;;7.90;99.90;;;;;;5073789;28;19935;-74
2022/02/21 02:48:07;;;;;;;;;;;7.90;99.90;;;;;;5073761;28;20019;-73
2022/02/21 02:50:32;;;;;;;;;;;7.90;99.90;;;;;;5073741;28;20002;-73
2022/02/21 02:52:58;;;;;;;;;;;8.10;99.90;;;;;;5073232;28;19918;-73
2022/02/21 02:55:24;;;;;;;;;;;8.10;99.90;;;;;;5073386;28;19919;-74
2022/02/21 02:57:49;;;;;;;;;;;8.00;99.90;;;;;;5073400;28;19954;-73
2022/02/21 03:00:17;;;;;;;;;;;8.00;99.90;;;;;;5073161;28;19909;-73
2022/02/21 03:02:42;;;;;;;;;;;8.00;99.90;;;;;;5073326;28;19908;-75
2022/02/21 03:05:08;;;;;;;;;;;7.90;99.90;;;;;;5071975;28;20277;-73
2022/02/21 03:07:34;;;;;;;;;;;7.90;99.90;;;;;;5073178;28;19954;-73
2022/02/21 03:09:59;;;;;;;;;;;7.90;99.90;;;;;;5071621;28;20331;-73
2022/02/21 03:12:25;;;;;;;;;;;7.80;99.90;;;;;;5073272;28;19919;-73
2022/02/21 03:14:51;;;;;;;;;;;7.70;99.90;;;;;;5073128;28;20364;-73
2022/02/21 03:17:17;;;;;;;;;;;7.60;99.90;;;;;;5073105;28;19923;-73
2022/02/21 03:19:43;;;;;;;;;;;7.70;99.90;;;;;;5073306;28;19915;-73
2022/02/21 03:22:08;;;;;;;;;;;7.60;99.90;;;;;;5072843;28;19908;-73
2022/02/21 03:24:34;;;;;;;;;;;7.40;99.90;;;;;;5072745;28;20318;-73
2022/02/21 03:26:59;;;;;;;;;;;7.70;99.90;;;;;;5072880;28;19917;-73
2022/02/21 03:29:25;;;;;;;;;;;7.60;99.90;;;;;;5071217;28;19915;-73
2022/02/21 03:31:50;;;;;;;;;;;7.60;99.90;;;;;;5072685;28;20010;-74
2022/02/21 03:34:16;;;;;;;;;;;7.60;99.90;;;;;;5072718;28;19935;-73
2022/02/21 03:36:41;;;;;;;;;;;7.60;99.90;;;;;;5072482;28;19912;-73
2022/02/21 03:39:07;;;;;;;;;;;7.60;99.90;;;;;;5072168;28;19909;-74
2022/02/21 03:41:35;;;;;;;;;;;7.40;99.90;;;;;;5072569;28;19960;-73
2022/02/21 03:44:01;;;;;;;;;;;7.20;99.90;;;;;;5072437;28;19912;-73
2022/02/21 03:46:27;;;;;;;;;;;7.00;99.90;;;;;;5073010;28;20185;-74
2022/02/21 03:48:53;;;;;;;;;;;6.40;99.90;;;;;;5071255;28;19909;-75
2022/02/21 03:51:18;;;;;;;;;;;6.30;99.90;;;;;;5072126;28;19915;-75
2022/02/21 03:53:44;;;;;;;;;;;6.10;99.90;;;;;;5072583;28;19913;-74
2022/02/21 03:56:09;;;;;;;;;;;5.40;99.90;;;;;;5071115;28;19909;-74
2022/02/21 03:58:35;;;;;;;;;;;4.60;99.90;;;;;;5069275;28;20361;-73
2022/02/21 04:01:00;;;;;;;;;;;4.40;99.90;;;;;;5071907;28;19908;-73
2022/02/21 04:03:26;;;;;;;;;;;3.80;99.90;;;;;;5071860;28;20272;-75
2022/02/21 04:05:51;;;;;;;;;;;3.30;99.90;;;;;;5072078;28;19999;-75
2022/02/21 04:08:17;;;;;;;;;;;3.10;99.90;;;;;;5072109;28;19912;-73
2022/02/21 04:10:42;;;;;;;;;;;2.90;99.90;;;;;;5072161;28;19908;-73
2022/02/21 04:13:08;;;;;;;;;;;2.60;99.90;;;;;;5071595;28;20006;-73
2022/02/21 04:15:33;;;;;;;;;;;2.00;99.90;;;;;;5072181;28;20000;-74
2022/02/21 04:17:59;;;;;;;;;;;1.90;99.90;;;;;;5071957;28;19967;-73
2022/02/21 04:20:27;;;;;;;;;;;1.90;99.90;;;;;;5070379;28;19913;-76
2022/02/21 04:22:53;;;;;;;;;;;1.50;99.90;;;;;;5071771;28;19940;-76
2022/02/21 04:25:18;;;;;;;;;;;1.50;99.90;;;;;;5070445;28;19908;-76
2022/02/21 04:27:45;;;;;;;;;;;1.50;99.90;;;;;;5068705;28;19917;-75
2022/02/21 04:30:11;;;;;;;;;;;1.40;99.90;;;;;;5071826;28;19909;-75
2022/02/21 04:32:38;;;;;;;;;;;1.30;99.90;;;;;;5070013;28;19919;-75
2022/02/21 04:35:04;;;;;;;;;;;1.30;99.90;;;;;;5071198;28;20373;-76
2022/02/21 04:37:29;;;;;;;;;;;1.30;99.90;;;;;;5071559;28;19909;-75
2022/02/21 04:39:55;;;;;;;;;;;1.30;99.90;;;;;;5071598;28;20502;-75
2022/02/21 04:42:20;;;;;;;;;;;1.30;99.90;;;;;;5071396;28;19969;-74
2022/02/21 04:44:46;;;;;;;;;;;1.30;99.90;;;;;;5071400;28;19912;-74
2022/02/21 04:47:11;;;;;;;;;;;1.30;99.90;;;;;;5071563;28;19913;-74
2022/02/21 04:49:37;;;;;;;;;;;1.30;99.90;;;;;;5070043;28;20042;-75
2022/02/21 04:52:02;;;;;;;;;;;1.30;99.90;;;;;;5071308;28;20361;-76
2022/02/21 04:54:28;;;;;;;;;;;1.40;99.90;;;;;;5071537;28;19935;-75
2022/02/21 04:56:53;;;;;;;;;;;1.30;99.90;;;;;;5070233;28;19951;-75
2022/02/21 04:59:19;;;;;;;;;;;1.40;99.90;;;;;;5067267;28;19978;-75
2022/02/21 05:01:44;;;;;;;;;;;1.30;99.90;;;;;;5071181;28;19917;-75
2022/02/21 05:04:10;;;;;;;;;;;1.40;99.90;;;;;;5072031;28;19952;-75
2022/02/21 05:06:35;;;;;;;;;;;1.40;99.90;;;;;;5069100;28;19916;-75
2022/02/21 05:09:01;;;;;;;;;;;1.40;99.90;;;;;;5070078;28;20329;-76
2022/02/21 05:11:26;;;;;;;;;;;1.50;99.90;;;;;;5070140;28;19908;-77
2022/02/21 05:13:51;;;;;;;;;;;1.50;99.90;;;;;;5071083;28;19917;-75
2022/02/21 05:16:17;;;;;;;;;;;1.60;99.90;;;;;;5071318;28;20376;-76
2022/02/21 05:18:42;;;;;;;;;;;1.60;99.90;;;;;;5070070;28;19908;-75
2022/02/21 05:21:08;;;;;;;;;;;1.70;99.90;;;;;;5071096;28;20353;-75
2022/02/21 05:23:33;;;;;;;;;;;1.70;99.90;;;;;;5070906;28;19999;-75
2022/02/21 05:25:59;;;;;;;;;;;1.80;99.90;;;;;;5071336;28;19915;-76
2022/02/21 05:28:24;;;;;;;;;;;1.80;99.90;;;;;;5068113;28;19915;-74
2022/02/21 05:30:50;;;;;;;;;;;1.80;99.90;;;;;;5070539;28;19908;-74
2022/02/21 05:33:15;;;;;;;;;;;1.80;99.90;;;;;;5069835;28;19959;-74
2022/02/21 05:35:41;;;;;;;;;;;1.80;99.90;;;;;;5071342;28;19962;-73
2022/02/21 05:38:07;;;;;;;;;;;1.80;99.90;;;;;;5070918;28;19908;-74
2022/02/21 05:40:32;;;;;;;;;;;1.80;99.90;;;;;;5071289;28;20000;-73
2022/02/21 05:42:58;;;;;;;;;;;1.90;99.90;;;;;;5069748;28;19931;-73
2022/02/21 05:45:23;;;;;;;;;;;1.90;99.90;;;;;;5071015;28;19908;-75
2022/02/21 05:47:49;;;;;;;;;;;1.90;99.90;;;;;;5069426;28;20421;-73
2022/02/21 05:50:14;;;;;;;;;;;1.90;99.90;;;;;;5071346;28;19917;-73
2022/02/21 05:52:40;;;;;;;;;;;1.90;99.90;;;;;;5070811;28;20380;-74
2022/02/21 05:55:06;;;;;;;;;;;1.90;99.90;;;;;;5070981;28;20011;-73
2022/02/21 05:57:31;;;;;;;;;;;1.90;99.90;;;;;;5071047;28;19913;-74
2022/02/21 05:59:59;;;;;;;;;;;1.90;99.90;;;;;;5070743;28;19995;-73
2022/02/21 06:02:24;;;;;;;;;;;1.90;99.90;;;;;;5070534;28;20000;-74
2022/02/21 06:04:50;;;;;;;;;;;1.90;99.90;;;;;;5071065;28;19952;-73
2022/02/21 06:07:17;;;;;;;;;;;1.90;99.90;;;;;;5071571;28;20114;-74
2022/02/21 06:09:44;;;;;;;;;;;1.90;99.90;;;;;;5071499;28;19947;-74
2022/02/21 06:12:11;;;;;;;;;;;2.00;99.90;;;;;;5071053;28;19917;-73
2022/02/21 06:14:36;;;;;;;;;;;2.00;99.90;;;;;;5073695;28;20006;-74
2022/02/21 06:17:02;;;;;;;;;;;2.00;99.90;;;;;;5074792;28;19971;-73
2022/02/21 06:19:27;;;;;;;;;;;1.90;99.90;;;;;;5075604;28;19930;-73
2022/02/21 06:21:54;;;;;;;;;;;1.90;99.90;;;;;;5074717;28;20347;-74
2022/02/21 06:24:20;;;;;;;;;;;1.90;99.90;;;;;;5076465;28;19912;-73
2022/02/21 06:26:45;;;;;;;;;;;1.80;99.90;;;;;;5077643;28;19909;-73
2022/02/21 06:29:11;;;;;;;;;;;1.70;99.90;;;;;;5072014;28;19909;-75
2022/02/21 06:31:36;;;;;;;;;;;1.70;99.90;;;;;;5076883;28;19915;-74
2022/02/21 06:34:01;;;;;;;;;;;1.70;99.90;;;;;;5074283;28;19915;-74
2022/02/21 06:36:27;;;;;;;;;;;1.80;99.90;;;;;;5074288;28;19970;-74
2022/02/21 06:38:53;;;;;;;;;;;1.80;99.90;;;;;;5074461;28;19955;-74
2022/02/21 06:41:18;;;;;;;;;;;1.90;99.90;;;;;;5074417;28;19909;-74
2022/02/21 06:43:44;;;;;;;;;;;1.90;99.90;;;;;;5074940;28;19908;-74
2022/02/21 06:46:09;;;;;;;;;;;1.90;99.90;;;;;;5069006;28;19928;-74
2022/02/21 06:48:35;;;;;;;;;;;2.00;99.90;;;;;;5068408;28;19908;-75
2022/02/21 06:51:01;;;;;;;;;;;2.00;99.90;;;;;;5069868;28;20413;-71
2022/02/21 06:53:27;;;;;;;;;;;2.10;99.90;;;;;;5065840;28;19920;-72
2022/02/21 06:55:53;;;;;;;;;;;2.10;99.90;;;;;;5067501;28;19939;-72
2022/02/21 06:58:18;;;;;;;;;;;2.10;99.90;;;;;;5071887;28;19908;-72
2022/02/21 07:00:44;;;;;;;;;;;2.10;99.90;;;;;;5066886;28;19954;-72
2022/02/21 07:03:09;;;;;;;;;;;2.00;99.90;;;;;;5071946;28;19920;-75
2022/02/21 07:05:35;;;;;;;;;;;1.90;99.90;;;;;;5063942;28;19917;-72
2022/02/21 07:08:00;;;;;;;;;;;1.80;99.90;;;;;;5073687;28;19915;-72
2022/02/21 07:10:26;;;;;;;;;;;1.70;99.90;;;;;;5071188;28;19962;-73
2022/02/21 07:12:52;;;;;;;;;;;1.70;99.90;;;;;;5071699;28;19916;-73
2022/02/21 07:15:17;;;;;;;;;;;1.70;99.90;;;;;;5065607;28;19967;-73
2022/02/21 07:17:43;;;;;;;;;;;1.70;99.90;;;;;;5071516;28;19970;-73
2022/02/21 07:20:12;;;;;;;;;;;1.70;99.90;;;;;;5074906;28;19940;-73
2022/02/21 07:22:41;;;;;;;;;;;1.60;99.90;;;;;;5070000;28;20000;-72
2022/02/21 07:25:08;;;;;;;;;;;1.80;99.90;;;;;;5067259;28;19908;-72
2022/02/21 07:27:39;;;;;;;;;;;1.80;99.90;;;;;;5071809;28;20283;-73
2022/02/21 07:30:05;;;;;;;;;;;1.80;99.90;;;;;;5068200;28;20286;-72
2022/02/21 07:32:31;;;;;;;;;;;1.90;99.90;;;;;;5069647;28;19923;-72
2022/02/21 07:34:56;;;;;;;;;;;1.90;99.90;;;;;;5060955;28;19916;-73
2022/02/21 07:37:22;;;;;;;;;;;1.90;99.90;;;;;;5067291;28;20004;-73
2022/02/21 07:39:47;;;;;;;;;;;1.90;99.90;;;;;;5076299;28;20281;-73
2022/02/21 07:42:13;;;;;;;;;;;1.90;99.90;;;;;;5072274;28;19908;-73
2022/02/21 07:44:38;;;;;;;;;;;2.00;99.90;;;;;;5065196;28;20440;-73
2022/02/21 07:47:05;;;;;;;;;;;2.20;99.90;;;;;;5072077;28;19999;-73
2022/02/21 07:49:30;;;;;;;;;;;2.30;99.90;;;;;;5072655;28;19916;-73
2022/02/21 07:51:56;;;;;;;;;;;2.30;99.90;;;;;;5071840;28;19912;-73
2022/02/21 07:54:21;;;;;;;;;;;2.40;99.90;;;;;;5065633;28;19920;-73
2022/02/21 07:56:47;;;;;;;;;;;2.50;99.90;;;;;;5070418;28;19924;-72
2022/02/21 07:59:12;;;;;;;;;;;2.60;99.90;;;;;;5068774;28;20015;-73
2022/02/21 08:01:38;;;;;;;;;;;2.70;99.90;;;;;;5070476;28;20410;-72
2022/02/21 08:04:04;;;;;;;;;;;2.70;99.90;;;;;;5071729;28;20285;-73
2022/02/21 08:06:29;;;;;;;;;;;2.90;99.90;;;;;;5072576;28;19974;-73
2022/02/21 08:08:55;;;;;;;;;;;3.00;99.90;;;;;;5067614;28;20356;-73
2022/02/21 08:11:21;;;;;;;;;;;3.00;99.90;;;;;;5070852;28;19915;-72
2022/02/21 08:13:47;;;;;;;;;;;3.10;99.90;;;;;;5069288;28;19962;-73
2022/02/21 08:16:12;;;;;;;;;;;3.20;99.90;;;;;;5071852;28;20179;-72
2022/02/21 08:18:38;;;;;;;;;;;3.30;99.90;;;;;;5066579;28;20340;-73
2022/02/21 08:21:03;;;;;;;;;;;3.40;99.90;;;;;;5067541;28;20389;-73
2022/02/21 08:23:29;;;;;;;;;;;3.50;99.90;;;;;;5074002;28;20003;-73
2022/02/21 08:25:54;;;;;;;;;;;3.70;99.90;;;;;;5055780;28;19912;-73
2022/02/21 08:28:20;;;;;;;;;;;3.90;99.90;;;;;;5063561;28;19919;-73
2022/02/21 08:30:46;;;;;;;;;;;4.10;99.90;;;;;;5071114;28;20361;-73
2022/02/21 08:33:11;;;;;;;;;;;4.10;99.90;;;;;;5058148;28;19920;-72
2022/02/21 08:35:37;;;;;;;;;;;4.20;99.90;;;;;;5054600;28;19916;-73
2022/02/21 08:38:02;;;;;;;;;;;4.60;99.90;;;;;;5054420;28;20002;-73
2022/02/21 08:40:28;;;;;;;;;;;5.20;99.90;;;;;;5067108;28;19958;-73
2022/02/21 08:42:53;;;;;;;;;;;5.80;99.90;;;;;;5067743;28;19983;-73
2022/02/21 08:45:19;;;;;;;;;;;6.00;99.90;;;;;;5055364;28;19913;-73
2022/02/21 08:47:44;;;;;;;;;;;5.20;99.90;;;;;;5055230;28;19952;-73
2022/02/21 08:50:11;;;;;;;;;;;4.50;99.90;;;;;;5054098;28;19909;-73
2022/02/21 08:52:40;;;;;;;;;;;4.20;99.90;;;;;;5071314;28;19919;-73
2022/02/21 08:55:07;;;;;;;;;;;4.10;99.90;;;;;;5071120;28;19908;-72
2022/02/21 08:57:34;;;;;;;;;;;4.30;99.90;;;;;;5070125;28;19916;-73
2022/02/21 09:00:01;;;;;;;;;;;4.70;99.90;;;;;;5070948;28;19999;-73
2022/02/21 09:02:27;;;;;;;;;;;5.10;99.90;;;;;;5065963;28;19920;-72
2022/02/21 09:04:52;;;;;;;;;;;5.00;99.90;;;;;;5065337;28;19909;-73
2022/02/21 09:07:18;;;;;;;;;;;5.50;99.90;;;;;;5070921;28;20011;-73
2022/02/21 09:09:43;;;;;;;;;;;6.00;99.90;;;;;;5068858;28;19908;-73
2022/02/21 09:12:09;;;;;;;;;;;6.00;99.90;;;;;;5063331;28;20383;-73
2022/02/21 09:14:34;;;;;;;;;;;6.00;99.90;;;;;;5066192;28;19913;-73
2022/02/21 09:17:00;;;;;;;;;;;6.00;99.90;;;;;;5069195;28;19943;-73
2022/02/21 09:19:25;;;;;;;;;;;5.80;99.90;;;;;;5069089;28;19913;-73
2022/02/21 09:21:51;;;;;;;;;;;7.40;99.90;;;;;;5070772;28;19909;-74
2022/02/21 09:24:16;;;;;;;;;;;8.70;99.90;;;;;;5070840;28;19909;-73
2022/02/21 09:26:42;;;;;;;;;;;7.80;99.90;;;;;;5070717;28;20049;-73
2022/02/21 09:29:07;;;;;;;;;;;7.00;99.90;;;;;;5071873;28;19915;-74
2022/02/21 09:31:33;;;;;;;;;;;7.10;99.90;;;;;;5072417;28;19961;-73
2022/02/21 09:33:58;;;;;;;;;;;6.30;99.90;;;;;;5067387;28;19919;-73
2022/02/21 09:36:24;;;;;;;;;;;6.20;99.90;;;;;;5061194;28;19951;-74
2022/02/21 09:38:49;;;;;;;;;;;6.50;99.90;;;;;;5069137;28;19962;-74
2022/02/21 09:41:15;;;;;;;;;;;5.70;99.90;;;;;;5070467;28;19995;-73
2022/02/21 09:43:40;;;;;;;;;;;5.10;99.90;;;;;;5070581;28;19916;-73
2022/02/21 09:46:07;;;;;;;;;;;4.80;99.90;;;;;;5070744;28;19916;-73
2022/02/21 09:48:33;;;;;;;;;;;4.80;99.90;;;;;;5072296;28;19958;-73
2022/02/21 09:51:00;;;;;;;;;;;4.70;99.90;;;;;;5074846;28;19919;-72
2022/02/21 09:53:26;;;;;;;;;;;4.40;99.90;;;;;;5074388;28;19916;-73
2022/02/21 09:55:52;;;;;;;;;;;4.40;99.90;;;;;;5074418;28;20017;-73
2022/02/21 09:58:17;;;;;;;;;;;4.40;99.90;;;;;;5071469;28;19917;-72
2022/02/21 10:00:43;;;;;;;;;;;4.60;99.90;;;;;;5074400;28;19908;-73
2022/02/21 10:03:08;;;;;;;;;;;4.80;99.90;;;;;;5074228;28;19951;-72
2022/02/21 10:05:34;;;;;;;;;;;5.80;99.90;;;;;;5070386;28;19912;-74
2022/02/21 10:08:05;;;;;;;;;;;7.40;99.90;;;;;;5074235;28;19924;-73
2022/02/21 10:10:30;;;;;;;;;;;8.40;99.90;;;;;;5074378;28;19949;-73
2022/02/21 10:13:03;;;;;;;;;;;9.10;99.00;;;;;;5074066;28;19912;-73
2022/02/21 10:15:30;;;;;;;;;;;9.40;96.20;;;;;;5074180;28;19909;-74
2022/02/21 10:18:12;;;;;;;;;;;9.70;96.20;;;;;;5074204;28;20014;-74
2022/02/21 10:20:52;;;;;;;;;;;11.00;96.00;;;;;;5082074;28;19915;-74
2022/02/21 10:23:17;;;;;;;;;;;11.40;94.80;;;;;;5073452;28;19916;-74
2022/02/21 10:25:55;;;;;;;;;;;10.20;92.80;;;;;;5074152;28;19930;-74
2022/02/21 10:28:25;;;;;;;;;;;9.90;91.90;;;;;;5060210;28;20415;-74
2022/02/21 10:31:08;;;;;;;;;;;9.40;91.00;;;;;;5057014;28;20146;-74
2022/02/21 10:33:34;;;;;;;;;;;11.10;91.90;;;;;;5060590;28;19919;-74
2022/02/21 10:35:59;;;;;;;;;;;10.30;85.70;;;;;;5056411;28;19913;-74
2022/02/21 10:38:38;;;;;;;;;;;10.30;87.40;;;;;;5057065;28;19912;-74
2022/02/21 10:41:04;;;;;;;;;;;10.00;87.20;;;;;;5056819;28;19916;-74
2022/02/21 10:43:32;;;;;;;;;;;9.60;88.90;;;;;;5062018;28;19908;-74
2022/02/21 10:45:57;;;;;;;;;;;8.90;91.20;;;;;;5069347;28;20058;-74
2022/02/21 10:48:24;;;;;;;;;;;11.00;84.60;;;;;;5070988;28;19915;-74
2022/02/21 10:50:57;;;;;;;;;;;11.70;83.20;;;;;;5061934;28;19919;-74
2022/02/21 10:53:23;;;;;;;;;;;12.40;77.60;;;;;;5058328;28;20008;-74
2022/02/21 10:55:50;;;;;;;;;;;12.40;76.20;;;;;;5055706;28;19915;-75
2022/02/21 10:58:19;;;;;;;;;;;12.80;74.10;;;;;;5055104;28;20400;-75
2022/02/21 11:00:49;;;;;;;;;;;13.00;71.00;;;;;;5060203;28;19908;-75
2022/02/21 11:03:16;;;;;;;;;;;14.40;70.70;;;;;;5058557;28;19915;-74
2022/02/21 11:05:42;;;;;;;;;;;12.10;71.70;;;;;;5055417;28;20097;-74
2022/02/21 11:08:08;;;;;;;;;;;11.60;72.50;;;;;;5060505;28;19909;-75
2022/02/21 11:10:34;;;;;;;;;;;11.50;70.40;;;;;;5059814;28;19958;-74
2022/02/21 11:13:01;;;;;;;;;;;12.50;69.90;;;;;;5072894;28;19917;-74
2022/02/21 11:15:27;;;;;;;;;;;9.40;74.40;;;;;;5073027;28;19909;-74
2022/02/21 11:17:53;;;;;;;;;;;7.10;80.40;;;;;;5073241;28;19916;-74
2022/02/21 11:20:19;;;;;;;;;;;6.90;85.30;;;;;;5069807;28;19923;-73
2022/02/21 11:22:44;;;;;;;;;;;7.00;85.90;;;;;;5069924;28;19908;-74
2022/02/21 11:25:13;;;;;;;;;;;8.40;84.80;;;;;;5071435;28;19931;-74
2022/02/21 11:27:48;;;;;;;;;;;9.60;78.30;;;;;;5072931;28;19919;-74
2022/02/21 11:30:16;;;;;;;;;;;8.00;79.60;;;;;;5072701;28;20273;-74
2022/02/21 11:33:01;;;;;;;;;;;7.00;84.80;;;;;;5072756;28;20288;-76
2022/02/21 11:35:26;;;;;;;;;;;8.00;84.80;;;;;;5066438;28;20250;-74
2022/02/21 11:37:52;;;;;;;;;;;10.40;77.20;;;;;;5072392;28;19919;-73
2022/02/21 11:40:17;;;;;;;;;;;11.00;72.80;;;;;;5072790;28;19912;-73
2022/02/21 11:42:44;;;;;;;;;;;11.70;71.10;;;;;;5072587;28;19909;-74
2022/02/21 11:45:23;;;;;;;;;;;13.00;68.40;;;;;;5072429;28;19936;-73
2022/02/21 11:47:51;;;;;;;;;;;10.80;73.60;;;;;;5066995;28;20262;-73
2022/02/21 11:50:24;;;;;;;;;;;10.60;72.30;;;;;;5072442;28;19915;-74
2022/02/21 11:52:51;;;;;;;;;;;9.10;77.90;;;;;;5071086;28;19965;-73
2022/02/21 11:55:29;;;;;;;;;;;8.70;79.80;;;;;;5072207;28;20280;-74
2022/02/21 11:57:58;;;;;;;;;;;7.70;82.80;;;;;;5070834;28;19916;-74
2022/02/21 12:00:43;;;;;;;;;;;7.40;84.00;;;;;;5076336;28;20361;-73
2022/02/21 12:03:15;;;;;;;;;;;7.40;84.20;;;;;;5072221;28;19936;-73
2022/02/21 12:05:41;;;;;;;;;;;7.90;83.60;;;;;;5064217;28;19909;-73
2022/02/21 12:08:26;;;;;;;;;;;7.70;82.00;;;;;;5071871;28;20051;-73
2022/02/21 12:11:00;;;;;;;;;;;7.60;81.80;;;;;;5066722;28;19916;-73
2022/02/21 12:13:26;;;;;;;;;;;8.00;81.10;;;;;;5071346;28;19917;-73
2022/02/21 12:16:05;;;;;;;;;;;8.00;80.90;;;;;;5070782;28;19981;-73
2022/02/21 12:18:38;;;;;;;;;;;7.40;82.50;;;;;;5068039;28;20325;-74
2022/02/21 12:21:19;;;;;;;;;;;7.10;85.20;;;;;;5078225;28;19909;-73
2022/02/21 12:23:55;;;;;;;;;;;7.00;85.70;;;;;;5068585;28;19999;-73
2022/02/21 12:26:21;;;;;;;;;;;7.00;86.70;;;;;;5071780;28;19971;-73
2022/02/21 12:29:05;;;;;;;;;;;6.80;84.50;;;;;;5068573;28;19915;-73
2022/02/21 12:31:30;;;;;;;;;;;6.70;86.10;;;;;;5060267;28;19923;-73
2022/02/21 12:33:56;;;;;;;;;;;6.80;85.60;;;;;;5060012;28;19916;-73
2022/02/21 12:36:21;;;;;;;;;;;6.70;87.00;;;;;;5060214;28;19918;-75
2022/02/21 12:38:51;;;;;;;;;;;6.40;87.20;;;;;;5052804;28;20009;-73
2022/02/21 12:41:16;;;;;;;;;;;6.20;87.50;;;;;;5067839;28;19995;-73
2022/02/21 12:43:46;;;;;;;;;;;6.10;87.70;;;;;;5071444;28;20011;-73
2022/02/21 12:46:35;;;;;;;;;;;6.00;88.80;;;;;;5071513;28;19921;-74
2022/02/21 12:49:02;;;;;;;;;;;5.90;88.00;;;;;;5063329;28;19954;-73
2022/02/21 12:51:29;;;;;;;;;;;5.90;89.70;;;;;;5071291;28;20357;-73
2022/02/21 12:54:05;;;;;;;;;;;6.00;89.40;;;;;;5071042;28;20281;-73
2022/02/21 12:56:41;;;;;;;;;;;6.00;89.40;;;;;;5071365;28;19916;-73
2022/02/21 12:59:06;;;;;;;;;;;5.90;88.80;;;;;;5071123;28;19909;-73
2022/02/21 13:01:32;;;;;;;;;;;6.00;88.90;;;;;;5065738;28;19938;-73
2022/02/21 13:03:58;;;;;;;;;;;6.00;90.10;;;;;;5070755;28;19909;-73
2022/02/21 13:06:24;;;;;;;;;;;6.10;90.50;;;;;;5069714;28;19909;-73
2022/02/21 13:08:50;;;;;;;;;;;6.20;90.20;;;;;;5070828;28;19909;-73
2022/02/21 13:11:26;;;;;;;;;;;6.30;90.20;;;;;;5071029;28;19908;-73
2022/02/21 13:13:53;;;;;;;;;;;6.40;89.80;;;;;;5070725;28;19939;-73
2022/02/21 13:16:18;;;;;;;;;;;6.30;89.50;;;;;;5071049;28;19939;-73
2022/02/21 13:18:47;;;;;;;;;;;6.60;89.70;;;;;;5065133;28;20120;-72
2022/02/21 13:21:23;;;;;;;;;;;6.70;88.40;;;;;;5075667;28;19974;-73
2022/02/21 13:23:49;;;;;;;;;;;6.70;88.80;;;;;;5069074;28;19963;-73
2022/02/21 13:26:14;;;;;;;;;;;6.60;89.30;;;;;;5070730;28;19943;-74
2022/02/21 13:28:43;;;;;;;;;;;6.80;90.00;;;;;;5070909;28;20374;-73
2022/02/21 13:31:08;;;;;;;;;;;7.00;89.60;;;;;;5069216;28;19908;-73
2022/02/21 13:33:41;;;;;;;;;;;7.20;89.30;;;;;;5068639;28;19916;-74
2022/02/21 13:36:07;;;;;;;;;;;7.00;87.40;;;;;;5082622;28;19919;-73
2022/02/21 13:38:33;;;;;;;;;;;7.20;88.60;;;;;;5070669;28;19917;-72
2022/02/21 13:40:59;;;;;;;;;;;6.90;87.20;;;;;;5070977;28;19918;-72
2022/02/21 13:43:24;;;;;;;;;;;6.80;87.80;;;;;;5070173;28;19908;-73
2022/02/21 13:45:50;;;;;;;;;;;6.90;89.90;;;;;;5069649;28;19908;-73
2022/02/21 13:48:19;;;;;;;;;;;6.70;89.90;;;;;;5069501;28;19915;-73
2022/02/21 13:50:46;;;;;;;;;;;6.70;89.70;;;;;;5070094;28;19916;-73
2022/02/21 13:53:12;;;;;;;;;;;6.70;90.60;;;;;;5069288;28;20297;-73
2022/02/21 13:55:37;;;;;;;;;;;6.50;90.60;;;;;;5070446;28;19912;-73
2022/02/21 13:58:04;;;;;;;;;;;6.20;90.60;;;;;;5070057;28;20401;-73
2022/02/21 14:00:46;;;;;;;;;;;6.40;90.80;;;;;;5070571;28;19995;-74
2022/02/21 14:03:13;;;;;;;;;;;6.50;91.50;;;;;;5069955;28;19977;-73
2022/02/21 14:05:55;;;;;;;;;;;6.40;91.50;;;;;;5067161;28;20285;-73
2022/02/21 14:08:20;;;;;;;;;;;6.60;92.60;;;;;;5070323;28;19908;-73
2022/02/21 14:10:56;;;;;;;;;;;6.50;92.50;;;;;;5069335;28;20010;-74
2022/02/21 14:13:21;;;;;;;;;;;6.40;92.20;;;;;;5070162;28;20281;-73
2022/02/21 14:15:47;;;;;;;;;;;6.30;92.80;;;;;;5070458;28;19920;-73
2022/02/21 14:18:12;;;;;;;;;;;6.30;93.30;;;;;;5070238;28;19970;-73
2022/02/21 14:20:38;;;;;;;;;;;6.10;93.30;;;;;;5069530;28;19924;-73
2022/02/21 14:23:05;;;;;;;;;;;6.10;93.70;;;;;;5070048;28;19965;-73
2022/02/21 14:25:30;;;;;;;;;;;6.10;93.60;;;;;;5070465;28;20284;-73